Himeji, Japan

2:59 PM JST on August 31, 2014 (GMT +0900)
Kansai International | Change Station
CLOSE
Current Station
Airport
Location: Kansai,
Elevation: 26 ft
Nearby Weather Stations

Elev 26 ft 34.43 °N, 135.23 °E | Updated 29 minutes ago

Mostly Cloudy
Mostly Cloudy
82 °F
Feels Like 85 °F
N
8
Wind Variable Wind from WSW

Today
High -- | Low -- °F
--% Chance of Precip.
Yesterday
High -- | Low -- °F
Precip. -- in
5:33 AM 6:29 PM
Waxing Crescent, 28% visible
Pressure 29.83 in
Visibility 6.2 miles
Clouds Few 2000 ft
Few 2500 ft
Mostly Cloudy 10000 ft
Heat Index 85 °F
Dew Point 68 °F
Humidity 62%
Rainfall 0.00 in
Snow Depth Not available.
UV 4 out of 12
Pollen Not available.
Air Quality Not available.
Flu Activity Not available.
METAR RJBB 310530Z 25007KT 9999 FEW020 FEW025CB BKN100 28/20 Q1010 NOSIG

More Conditions Fewer Conditions

Pressure 29.83 in
Visibility 6.2 miles
Clouds Few 2000 ft
Few 2500 ft
Mostly Cloudy 10000 ft
Heat Index 85 °F
Dew Point 68 °F
Humidity 62%
Rainfall 0.00 in
Snow Depth Not available.
UV 4 out of 12
Pollen Not available.
Air Quality Not available.
Flu Activity Not available.
METAR RJBB 310530Z 25007KT 9999 FEW020 FEW025CB BKN100 28/20 Q1010 NOSIG

More Conditions Fewer Conditions

10-Day Weather Forecast

Almanac

Astronomy

Aug. 31, 2014 Rise Set
Actual Time 5:33 AM JST 6:29 PM JST
Civil Twilight 5:07 AM JST 6:55 PM JST
Nautical Twilight 4:36 AM JST 7:26 PM JST
Astronomical Twilight 4:04 AM JST 7:57 PM JST
Moon 10:29 AM JST 9:33 PM JST
Length of Visible Light 13h 48m
Length of Day
12h 56m
Tomorrow will be 2m 5s shorter.
Waxing Crescent, 28% of the Moon is Illuminated
Today
Waxing Crescent
Sep 2
First Quarter
Sep 8
Full
Sep 15
Last Quarter
Sep 24
New

Yesterday's Extremes

Country Highs Country Lows

Community

WunderPhotos

Upload Photos

1,748,790 photos uploaded!

Nearby

Snow Depth

Not available.

Earthquake Activity

City Distance Mag. Time & Date
No recent earthquake activity has been reported nearby.
Minimum magnitude displayed is 2.5.

Coastal Water Temperatures

Place Temperature
No Stations Reporting

Nearby Weather Stations